sensor_id;sensor_type;location;lat;lon;timestamp;P1;durP1;ratioP1;P2;durP2;ratioP2
4407;SDS011;2217;48.460;7.934;2022-08-23T00:00:42;3.77;;;1.00;;
4407;SDS011;2217;48.460;7.934;2022-08-23T00:03:14;3.70;;;0.90;;
4407;SDS011;2217;48.460;7.934;2022-08-23T00:05:55;3.70;;;0.90;;
4407;SDS011;2217;48.460;7.934;2022-08-23T00:08:26;3.70;;;0.90;;
4407;SDS011;2217;48.460;7.934;2022-08-23T00:10:57;3.73;;;0.90;;
4407;SDS011;2217;48.460;7.934;2022-08-23T00:13:25;3.70;;;0.90;;
4407;SDS011;2217;48.460;7.934;2022-08-23T00:15:53;3.70;;;1.00;;
4407;SDS011;2217;48.460;7.934;2022-08-23T00:18:20;3.70;;;0.90;;
4407;SDS011;2217;48.460;7.934;2022-08-23T00:20:48;3.70;;;0.90;;
4407;SDS011;2217;48.460;7.934;2022-08-23T00:23:19;3.70;;;0.90;;
4407;SDS011;2217;48.460;7.934;2022-08-23T00:25:46;3.73;;;0.93;;
4407;SDS011;2217;48.460;7.934;2022-08-23T00:28:21;3.70;;;1.00;;
4407;SDS011;2217;48.460;7.934;2022-08-23T00:30:49;3.70;;;0.90;;
4407;SDS011;2217;48.460;7.934;2022-08-23T00:33:17;3.70;;;0.90;;
4407;SDS011;2217;48.460;7.934;2022-08-23T00:35:46;3.70;;;0.90;;
4407;SDS011;2217;48.460;7.934;2022-08-23T00:38:13;3.70;;;0.90;;
4407;SDS011;2217;48.460;7.934;2022-08-23T00:40:41;3.70;;;0.90;;
4407;SDS011;2217;48.460;7.934;2022-08-23T00:43:12;3.67;;;0.90;;
4407;SDS011;2217;48.460;7.934;2022-08-23T00:46:02;3.70;;;0.90;;
4407;SDS011;2217;48.460;7.934;2022-08-23T00:48:48;3.70;;;0.90;;
4407;SDS011;2217;48.460;7.934;2022-08-23T00:51:31;3.70;;;0.90;;
4407;SDS011;2217;48.460;7.934;2022-08-23T00:54:01;3.67;;;0.90;;
4407;SDS011;2217;48.460;7.934;2022-08-23T00:56:30;3.67;;;0.90;;
4407;SDS011;2217;48.460;7.934;2022-08-23T00:58:58;3.60;;;0.90;;
4407;SDS011;2217;48.460;7.934;2022-08-23T01:01:29;3.63;;;0.90;;
4407;SDS011;2217;48.460;7.934;2022-08-23T01:03:57;3.60;;;0.90;;
4407;SDS011;2217;48.460;7.934;2022-08-23T01:06:25;3.63;;;0.90;;
4407;SDS011;2217;48.460;7.934;2022-08-23T01:08:55;3.67;;;1.00;;
4407;SDS011;2217;48.460;7.934;2022-08-23T01:11:24;3.60;;;0.90;;
4407;SDS011;2217;48.460;7.934;2022-08-23T01:13:54;3.60;;;0.83;;
4407;SDS011;2217;48.460;7.934;2022-08-23T01:16:24;3.60;;;0.90;;
4407;SDS011;2217;48.460;7.934;2022-08-23T01:18:54;3.60;;;0.90;;
4407;SDS011;2217;48.460;7.934;2022-08-23T01:21:22;3.63;;;0.90;;
4407;SDS011;2217;48.460;7.934;2022-08-23T01:23:53;3.60;;;1.00;;
4407;SDS011;2217;48.460;7.934;2022-08-23T01:26:22;3.60;;;0.90;;
4407;SDS011;2217;48.460;7.934;2022-08-23T01:28:50;3.60;;;0.90;;
4407;SDS011;2217;48.460;7.934;2022-08-23T01:31:18;3.60;;;1.00;;
4407;SDS011;2217;48.460;7.934;2022-08-23T01:33:48;3.60;;;0.90;;
4407;SDS011;2217;48.460;7.934;2022-08-23T01:36:16;3.60;;;1.00;;
4407;SDS011;2217;48.460;7.934;2022-08-23T01:38:44;3.60;;;0.90;;
4407;SDS011;2217;48.460;7.934;2022-08-23T01:41:12;3.60;;;1.00;;
4407;SDS011;2217;48.460;7.934;2022-08-23T01:43:40;3.60;;;0.90;;
4407;SDS011;2217;48.460;7.934;2022-08-23T01:46:08;3.60;;;0.97;;
4407;SDS011;2217;48.460;7.934;2022-08-23T01:48:35;3.60;;;1.00;;
4407;SDS011;2217;48.460;7.934;2022-08-23T01:51:03;3.57;;;0.90;;
4407;SDS011;2217;48.460;7.934;2022-08-23T01:53:30;3.50;;;0.90;;
4407;SDS011;2217;48.460;7.934;2022-08-23T01:55:58;3.53;;;0.90;;
4407;SDS011;2217;48.460;7.934;2022-08-23T01:58:29;3.50;;;0.90;;
4407;SDS011;2217;48.460;7.934;2022-08-23T02:00:57;3.57;;;0.90;;
4407;SDS011;2217;48.460;7.934;2022-08-23T02:03:24;3.50;;;0.90;;
4407;SDS011;2217;48.460;7.934;2022-08-23T02:05:53;3.50;;;0.90;;
4407;SDS011;2217;48.460;7.934;2022-08-23T02:08:20;3.50;;;0.87;;
4407;SDS011;2217;48.460;7.934;2022-08-23T02:11:08;3.50;;;1.00;;
4407;SDS011;2217;48.460;7.934;2022-08-23T02:13:37;3.50;;;0.90;;
4407;SDS011;2217;48.460;7.934;2022-08-23T02:16:05;3.50;;;0.90;;
4407;SDS011;2217;48.460;7.934;2022-08-23T02:18:32;3.50;;;0.90;;
4407;SDS011;2217;48.460;7.934;2022-08-23T02:21:00;3.50;;;0.90;;
4407;SDS011;2217;48.460;7.934;2022-08-23T02:23:27;3.50;;;0.90;;
4407;SDS011;2217;48.460;7.934;2022-08-23T02:25:55;3.50;;;0.90;;
4407;SDS011;2217;48.460;7.934;2022-08-23T02:28:22;3.50;;;0.90;;
4407;SDS011;2217;48.460;7.934;2022-08-23T02:30:51;3.47;;;0.90;;
4407;SDS011;2217;48.460;7.934;2022-08-23T02:33:18;3.47;;;0.90;;
4407;SDS011;2217;48.460;7.934;2022-08-23T03:42:05;3.40;;;0.90;;
4407;SDS011;2217;48.460;7.934;2022-08-23T03:44:38;3.40;;;0.90;;
4407;SDS011;2217;48.460;7.934;2022-08-23T03:47:35;3.40;;;1.00;;
4407;SDS011;2217;48.460;7.934;2022-08-23T03:53:25;3.40;;;0.90;;
4407;SDS011;2217;48.460;7.934;2022-08-23T04:02:23;3.40;;;0.90;;
4407;SDS011;2217;48.460;7.934;2022-08-23T04:05:30;3.40;;;1.00;;
4407;SDS011;2217;48.460;7.934;2022-08-23T04:08:12;3.40;;;0.90;;
4407;SDS011;2217;48.460;7.934;2022-08-23T04:14:32;3.40;;;0.90;;
4407;SDS011;2217;48.460;7.934;2022-08-23T12:45:21;6.57;;;0.77;;
4407;SDS011;2217;48.460;7.934;2022-08-23T12:47:59;6.50;;;0.70;;
4407;SDS011;2217;48.460;7.934;2022-08-23T12:50:27;6.57;;;0.70;;
4407;SDS011;2217;48.460;7.934;2022-08-23T12:52:57;6.57;;;0.75;;
4407;SDS011;2217;48.460;7.934;2022-08-23T12:55:28;6.57;;;0.73;;
4407;SDS011;2217;48.460;7.934;2022-08-23T12:57:58;6.57;;;0.80;;
4407;SDS011;2217;48.460;7.934;2022-08-23T13:00:30;6.63;;;0.77;;
4407;SDS011;2217;48.460;7.934;2022-08-23T13:03:00;6.65;;;0.80;;
4407;SDS011;2217;48.460;7.934;2022-08-23T13:05:34;6.65;;;0.73;;
4407;SDS011;2217;48.460;7.934;2022-08-23T13:08:04;6.65;;;0.75;;
4407;SDS011;2217;48.460;7.934;2022-08-23T13:10:32;6.68;;;0.70;;
4407;SDS011;2217;48.460;7.934;2022-08-23T13:13:00;6.55;;;0.70;;
4407;SDS011;2217;48.460;7.934;2022-08-23T13:15:41;6.57;;;0.70;;
4407;SDS011;2217;48.460;7.934;2022-08-23T13:18:22;6.65;;;0.77;;
4407;SDS011;2217;48.460;7.934;2022-08-23T13:23:35;6.63;;;0.70;;
4407;SDS011;2217;48.460;7.934;2022-08-23T13:28:58;6.68;;;0.77;;
4407;SDS011;2217;48.460;7.934;2022-08-23T13:32:00;6.72;;;0.80;;
4407;SDS011;2217;48.460;7.934;2022-08-23T13:34:34;6.65;;;0.70;;
4407;SDS011;2217;48.460;7.934;2022-08-23T13:37:03;6.65;;;0.70;;
4407;SDS011;2217;48.460;7.934;2022-08-23T13:39:31;6.78;;;0.73;;
4407;SDS011;2217;48.460;7.934;2022-08-23T13:41:58;6.68;;;0.80;;
4407;SDS011;2217;48.460;7.934;2022-08-23T13:44:28;6.75;;;0.73;;
4407;SDS011;2217;48.460;7.934;2022-08-23T13:46:59;6.68;;;0.80;;
4407;SDS011;2217;48.460;7.934;2022-08-23T13:49:27;6.72;;;0.70;;
4407;SDS011;2217;48.460;7.934;2022-08-23T13:52:04;6.80;;;0.80;;
4407;SDS011;2217;48.460;7.934;2022-08-23T13:54:32;6.72;;;0.80;;
4407;SDS011;2217;48.460;7.934;2022-08-23T13:57:00;6.75;;;0.73;;
4407;SDS011;2217;48.460;7.934;2022-08-23T13:59:29;6.75;;;0.75;;
4407;SDS011;2217;48.460;7.934;2022-08-23T14:01:57;6.75;;;0.80;;
4407;SDS011;2217;48.460;7.934;2022-08-23T14:04:26;6.78;;;0.80;;
4407;SDS011;2217;48.460;7.934;2022-08-23T14:06:54;6.80;;;0.80;;
4407;SDS011;2217;48.460;7.934;2022-08-23T14:09:22;6.85;;;0.80;;
4407;SDS011;2217;48.460;7.934;2022-08-23T14:11:51;6.75;;;0.80;;
4407;SDS011;2217;48.460;7.934;2022-08-23T14:14:19;6.78;;;0.80;;
4407;SDS011;2217;48.460;7.934;2022-08-23T14:16:47;6.75;;;0.80;;
4407;SDS011;2217;48.460;7.934;2022-08-23T14:19:14;6.80;;;0.80;;
4407;SDS011;2217;48.460;7.934;2022-08-23T14:21:42;6.78;;;0.80;;
4407;SDS011;2217;48.460;7.934;2022-08-23T14:24:10;6.88;;;0.80;;
4407;SDS011;2217;48.460;7.934;2022-08-23T14:26:40;6.75;;;0.80;;
4407;SDS011;2217;48.460;7.934;2022-08-23T14:29:08;6.78;;;0.80;;
4407;SDS011;2217;48.460;7.934;2022-08-23T14:31:35;6.75;;;0.80;;
4407;SDS011;2217;48.460;7.934;2022-08-23T14:34:02;6.68;;;0.80;;
4407;SDS011;2217;48.460;7.934;2022-08-23T14:36:30;6.68;;;0.80;;
4407;SDS011;2217;48.460;7.934;2022-08-23T14:38:59;6.68;;;0.80;;
4407;SDS011;2217;48.460;7.934;2022-08-23T14:41:26;6.57;;;0.80;;
4407;SDS011;2217;48.460;7.934;2022-08-23T14:43:55;6.53;;;0.80;;
4407;SDS011;2217;48.460;7.934;2022-08-23T14:46:23;6.50;;;0.80;;
4407;SDS011;2217;48.460;7.934;2022-08-23T14:48:50;6.50;;;0.80;;
4407;SDS011;2217;48.460;7.934;2022-08-23T14:51:21;6.43;;;0.80;;
4407;SDS011;2217;48.460;7.934;2022-08-23T14:53:52;6.35;;;0.80;;
4407;SDS011;2217;48.460;7.934;2022-08-23T14:56:24;6.38;;;0.80;;
4407;SDS011;2217;48.460;7.934;2022-08-23T14:58:51;6.43;;;0.80;;
4407;SDS011;2217;48.460;7.934;2022-08-23T15:01:18;6.43;;;0.80;;
4407;SDS011;2217;48.460;7.934;2022-08-23T15:03:46;6.38;;;0.80;;
4407;SDS011;2217;48.460;7.934;2022-08-23T15:06:15;6.40;;;0.80;;
4407;SDS011;2217;48.460;7.934;2022-08-23T15:08:42;6.32;;;0.80;;
4407;SDS011;2217;48.460;7.934;2022-08-23T15:11:10;6.28;;;0.80;;
4407;SDS011;2217;48.460;7.934;2022-08-23T15:13:41;6.30;;;0.80;;
4407;SDS011;2217;48.460;7.934;2022-08-23T15:16:10;6.30;;;0.80;;
4407;SDS011;2217;48.460;7.934;2022-08-23T15:18:37;6.22;;;0.82;;
4407;SDS011;2217;48.460;7.934;2022-08-23T15:21:05;6.22;;;0.80;;
4407;SDS011;2217;48.460;7.934;2022-08-23T15:23:34;6.18;;;0.80;;
4407;SDS011;2217;48.460;7.934;2022-08-23T15:26:01;6.20;;;0.80;;
4407;SDS011;2217;48.460;7.934;2022-08-23T15:28:28;6.15;;;0.80;;
4407;SDS011;2217;48.460;7.934;2022-08-23T15:30:58;6.10;;;0.80;;
4407;SDS011;2217;48.460;7.934;2022-08-23T15:33:26;6.07;;;0.80;;
4407;SDS011;2217;48.460;7.934;2022-08-23T15:35:53;6.00;;;0.80;;
4407;SDS011;2217;48.460;7.934;2022-08-23T15:38:22;6.07;;;0.80;;
4407;SDS011;2217;48.460;7.934;2022-08-23T15:40:50;6.10;;;0.80;;
4407;SDS011;2217;48.460;7.934;2022-08-23T15:43:18;6.07;;;0.80;;
4407;SDS011;2217;48.460;7.934;2022-08-23T15:45:47;6.00;;;0.80;;
4407;SDS011;2217;48.460;7.934;2022-08-23T15:48:17;6.05;;;0.80;;
4407;SDS011;2217;48.460;7.934;2022-08-23T15:50:46;5.95;;;0.80;;
4407;SDS011;2217;48.460;7.934;2022-08-23T15:53:16;6.03;;;0.88;;
4407;SDS011;2217;48.460;7.934;2022-08-23T15:55:44;6.00;;;0.82;;
4407;SDS011;2217;48.460;7.934;2022-08-23T15:58:12;6.00;;;0.80;;
4407;SDS011;2217;48.460;7.934;2022-08-23T16:00:40;5.97;;;0.80;;
4407;SDS011;2217;48.460;7.934;2022-08-23T16:03:07;5.95;;;0.80;;
4407;SDS011;2217;48.460;7.934;2022-08-23T16:05:36;5.95;;;0.90;;
4407;SDS011;2217;48.460;7.934;2022-08-23T16:08:04;5.93;;;0.80;;
4407;SDS011;2217;48.460;7.934;2022-08-23T16:10:32;5.90;;;0.80;;
4407;SDS011;2217;48.460;7.934;2022-08-23T16:12:59;5.88;;;0.80;;
4407;SDS011;2217;48.460;7.934;2022-08-23T16:15:27;5.85;;;0.90;;
4407;SDS011;2217;48.460;7.934;2022-08-23T16:17:54;5.88;;;0.80;;
4407;SDS011;2217;48.460;7.934;2022-08-23T16:20:21;5.85;;;0.80;;
4407;SDS011;2217;48.460;7.934;2022-08-23T16:22:50;5.85;;;0.80;;
4407;SDS011;2217;48.460;7.934;2022-08-23T16:25:18;5.88;;;0.80;;
4407;SDS011;2217;48.460;7.934;2022-08-23T16:27:45;5.82;;;0.80;;
4407;SDS011;2217;48.460;7.934;2022-08-23T16:30:14;5.85;;;0.80;;
4407;SDS011;2217;48.460;7.934;2022-08-23T16:32:41;5.82;;;0.80;;
4407;SDS011;2217;48.460;7.934;2022-08-23T16:35:11;5.82;;;0.80;;
4407;SDS011;2217;48.460;7.934;2022-08-23T16:37:38;5.80;;;0.80;;
4407;SDS011;2217;48.460;7.934;2022-08-23T16:40:08;5.85;;;0.80;;
4407;SDS011;2217;48.460;7.934;2022-08-23T16:42:36;5.80;;;0.88;;
4407;SDS011;2217;48.460;7.934;2022-08-23T16:45:05;5.80;;;0.80;;
4407;SDS011;2217;48.460;7.934;2022-08-23T16:47:32;5.75;;;0.88;;
4407;SDS011;2217;48.460;7.934;2022-08-23T16:50:01;5.72;;;0.90;;
4407;SDS011;2217;48.460;7.934;2022-08-23T16:52:29;5.68;;;0.80;;
4407;SDS011;2217;48.460;7.934;2022-08-23T16:54:57;5.60;;;0.90;;
4407;SDS011;2217;48.460;7.934;2022-08-23T16:57:30;5.57;;;0.80;;
4407;SDS011;2217;48.460;7.934;2022-08-23T16:59:59;5.53;;;0.88;;
4407;SDS011;2217;48.460;7.934;2022-08-23T17:02:29;5.47;;;0.80;;
4407;SDS011;2217;48.460;7.934;2022-08-23T17:04:57;5.47;;;0.90;;
4407;SDS011;2217;48.460;7.934;2022-08-23T17:07:25;5.45;;;0.80;;
4407;SDS011;2217;48.460;7.934;2022-08-23T17:09:53;5.40;;;0.90;;
4407;SDS011;2217;48.460;7.934;2022-08-23T17:12:20;5.35;;;0.82;;
4407;SDS011;2217;48.460;7.934;2022-08-23T17:14:52;5.38;;;0.90;;
4407;SDS011;2217;48.460;7.934;2022-08-23T17:17:34;5.35;;;0.90;;
4407;SDS011;2217;48.460;7.934;2022-08-23T18:44:48;4.77;;;0.90;;
